sensor_id;sensor_type;location;lat;lon;timestamp;pressure;altitude;pressure_sealevel;temperature;humidity
80892;BME280;70343;51.530;5.050;2024-02-26T00:02:16;99739.13;;;6.90;100.00
80892;BME280;70343;51.530;5.050;2024-02-26T00:04:41;99751.88;;;6.92;100.00
80892;BME280;70343;51.530;5.050;2024-02-26T00:07:07;99745.47;;;6.88;100.00
80892;BME280;70343;51.530;5.050;2024-02-26T00:09:32;99752.25;;;6.89;100.00
80892;BME280;70343;51.530;5.050;2024-02-26T00:12:04;99752.63;;;6.86;100.00
80892;BME280;70343;51.530;5.050;2024-02-26T00:14:30;99755.44;;;6.84;100.00
80892;BME280;70343;51.530;5.050;2024-02-26T00:16:56;99740.25;;;6.81;100.00
80892;BME280;70343;51.530;5.050;2024-02-26T00:19:22;99746.66;;;6.85;100.00
80892;BME280;70343;51.530;5.050;2024-02-26T00:21:47;99748.44;;;6.85;100.00
80892;BME280;70343;51.530;5.050;2024-02-26T00:24:13;99741.66;;;6.84;100.00
80892;BME280;70343;51.530;5.050;2024-02-26T00:26:39;99735.06;;;6.81;100.00
80892;BME280;70343;51.530;5.050;2024-02-26T00:29:04;99738.19;;;6.70;100.00
80892;BME280;70343;51.530;5.050;2024-02-26T00:31:30;99746.44;;;6.80;100.00
80892;BME280;70343;51.530;5.050;2024-02-26T00:33:55;99738.66;;;6.80;100.00
80892;BME280;70343;51.530;5.050;2024-02-26T00:36:21;99733.84;;;6.77;100.00
80892;BME280;70343;51.530;5.050;2024-02-26T00:38:46;99737.81;;;6.73;100.00
80892;BME280;70343;51.530;5.050;2024-02-26T00:41:19;99733.44;;;6.74;100.00
80892;BME280;70343;51.530;5.050;2024-02-26T00:43:45;99737.03;;;6.73;100.00
80892;BME280;70343;51.530;5.050;2024-02-26T00:46:10;99731.03;;;6.72;100.00
80892;BME280;70343;51.530;5.050;2024-02-26T00:48:36;99731.41;;;6.69;100.00
80892;BME280;70343;51.530;5.050;2024-02-26T00:51:03;99729.06;;;6.74;100.00
80892;BME280;70343;51.530;5.050;2024-02-26T00:53:30;99735.06;;;6.75;100.00
80892;BME280;70343;51.530;5.050;2024-02-26T00:55:56;99735.41;;;6.72;100.00
80892;BME280;70343;51.530;5.050;2024-02-26T00:58:21;99734.00;;;6.69;100.00
80892;BME280;70343;51.530;5.050;2024-02-26T01:00:47;99729.41;;;6.65;100.00
80892;BME280;70343;51.530;5.050;2024-02-26T01:03:13;99734.59;;;6.65;100.00
80892;BME280;70343;51.530;5.050;2024-02-26T01:05:38;99725.34;;;6.56;100.00
80892;BME280;70343;51.530;5.050;2024-02-26T01:08:04;99733.56;;;6.59;100.00
80892;BME280;70343;51.530;5.050;2024-02-26T01:10:29;99737.13;;;6.58;100.00
80892;BME280;70343;51.530;5.050;2024-02-26T01:12:55;99737.31;;;6.57;100.00
80892;BME280;70343;51.530;5.050;2024-02-26T01:15:20;99742.31;;;6.58;100.00
80892;BME280;70343;51.530;5.050;2024-02-26T01:17:49;99743.53;;;6.62;100.00
80892;BME280;70343;51.530;5.050;2024-02-26T01:20:15;99739.31;;;6.61;100.00
80892;BME280;70343;51.530;5.050;2024-02-26T01:22:42;99744.28;;;6.56;100.00
80892;BME280;70343;51.530;5.050;2024-02-26T01:25:08;99751.44;;;6.54;100.00
80892;BME280;70343;51.530;5.050;2024-02-26T01:27:35;99748.84;;;6.54;100.00
80892;BME280;70343;51.530;5.050;2024-02-26T01:30:05;99753.81;;;6.49;100.00
80892;BME280;70343;51.530;5.050;2024-02-26T01:32:30;99754.78;;;6.48;100.00
80892;BME280;70343;51.530;5.050;2024-02-26T01:34:56;99752.59;;;6.45;100.00
80892;BME280;70343;51.530;5.050;2024-02-26T01:37:22;99752.16;;;6.42;100.00
80892;BME280;70343;51.530;5.050;2024-02-26T01:39:47;99750.75;;;6.39;100.00
80892;BME280;70343;51.530;5.050;2024-02-26T01:42:13;99755.31;;;6.37;100.00
80892;BME280;70343;51.530;5.050;2024-02-26T01:44:38;99758.88;;;6.36;100.00
80892;BME280;70343;51.530;5.050;2024-02-26T01:47:05;99760.28;;;6.39;100.00
80892;BME280;70343;51.530;5.050;2024-02-26T01:49:34;99767.44;;;6.37;100.00
80892;BME280;70343;51.530;5.050;2024-02-26T01:52:00;99763.25;;;6.36;100.00
80892;BME280;70343;51.530;5.050;2024-02-26T01:54:27;99761.84;;;6.33;100.00
80892;BME280;70343;51.530;5.050;2024-02-26T01:56:53;99759.63;;;6.30;100.00
80892;BME280;70343;51.530;5.050;2024-02-26T01:59:19;99761.22;;;6.31;100.00
80892;BME280;70343;51.530;5.050;2024-02-26T02:01:48;99762.97;;;6.24;100.00
80892;BME280;70343;51.530;5.050;2024-02-26T02:04:16;99763.72;;;6.18;100.00
80892;BME280;70343;51.530;5.050;2024-02-26T02:06:43;99765.69;;;6.16;100.00
80892;BME280;70343;51.530;5.050;2024-02-26T02:09:11;99767.66;;;6.14;100.00
80892;BME280;70343;51.530;5.050;2024-02-26T02:11:37;99773.19;;;6.11;100.00
80892;BME280;70343;51.530;5.050;2024-02-26T02:14:02;99769.63;;;6.12;100.00
80892;BME280;70343;51.530;5.050;2024-02-26T02:16:28;99764.81;;;6.09;100.00
80892;BME280;70343;51.530;5.050;2024-02-26T02:18:53;99769.38;;;6.07;100.00
80892;BME280;70343;51.530;5.050;2024-02-26T02:21:19;99772.53;;;6.02;100.00
80892;BME280;70343;51.530;5.050;2024-02-26T02:23:44;99767.91;;;5.98;100.00
80892;BME280;70343;51.530;5.050;2024-02-26T02:26:15;99777.44;;;5.97;100.00
80892;BME280;70343;51.530;5.050;2024-02-26T02:28:41;99780.59;;;5.93;100.00
80892;BME280;70343;51.530;5.050;2024-02-26T02:31:07;99785.94;;;5.91;100.00
80892;BME280;70343;51.530;5.050;2024-02-26T02:33:34;99782.66;;;5.83;100.00
80892;BME280;70343;51.530;5.050;2024-02-26T02:36:00;99789.53;;;5.76;100.00
80892;BME280;70343;51.530;5.050;2024-02-26T02:38:26;99791.88;;;5.71;100.00
80892;BME280;70343;51.530;5.050;2024-02-26T02:40:52;99789.03;;;5.66;100.00
80892;BME280;70343;51.530;5.050;2024-02-26T02:43:17;99791.75;;;5.58;100.00
80892;BME280;70343;51.530;5.050;2024-02-26T02:45:43;99795.06;;;5.52;100.00
80892;BME280;70343;51.530;5.050;2024-02-26T02:48:08;99793.53;;;5.42;100.00
80892;BME280;70343;51.530;5.050;2024-02-26T02:50:34;99793.53;;;5.42;100.00
80892;BME280;70343;51.530;5.050;2024-02-26T02:52:59;99794.53;;;5.41;100.00
80892;BME280;70343;51.530;5.050;2024-02-26T02:55:25;99797.13;;;5.41;100.00
80892;BME280;70343;51.530;5.050;2024-02-26T02:57:50;99791.03;;;5.34;100.00
80892;BME280;70343;51.530;5.050;2024-02-26T03:00:16;99796.06;;;5.36;100.00
80892;BME280;70343;51.530;5.050;2024-02-26T03:02:42;99793.00;;;5.32;100.00
80892;BME280;70343;51.530;5.050;2024-02-26T03:05:08;99800.16;;;5.30;100.00
80892;BME280;70343;51.530;5.050;2024-02-26T03:07:34;99805.34;;;5.30;100.00
80892;BME280;70343;51.530;5.050;2024-02-26T03:09:59;99797.94;;;5.27;100.00
80892;BME280;70343;51.530;5.050;2024-02-26T03:12:25;99807.94;;;5.30;100.00
80892;BME280;70343;51.530;5.050;2024-02-26T03:14:50;99801.66;;;5.25;100.00
80892;BME280;70343;51.530;5.050;2024-02-26T03:17:16;99799.69;;;5.27;100.00
80892;BME280;70343;51.530;5.050;2024-02-26T03:19:44;99796.44;;;5.18;100.00
80892;BME280;70343;51.530;5.050;2024-02-26T03:22:12;99794.81;;;5.17;100.00
80892;BME280;70343;51.530;5.050;2024-02-26T03:24:38;99796.88;;;5.22;100.00
80892;BME280;70343;51.530;5.050;2024-02-26T03:27:04;99799.25;;;5.23;100.00
80892;BME280;70343;51.530;5.050;2024-02-26T03:29:35;99797.69;;;5.22;100.00
80892;BME280;70343;51.530;5.050;2024-02-26T03:32:00;99789.66;;;5.17;100.00
80892;BME280;70343;51.530;5.050;2024-02-26T03:34:26;99797.22;;;5.19;100.00
80892;BME280;70343;51.530;5.050;2024-02-26T03:36:52;99804.53;;;5.30;100.00
80892;BME280;70343;51.530;5.050;2024-02-26T03:39:17;99802.13;;;5.28;100.00
80892;BME280;70343;51.530;5.050;2024-02-26T03:41:43;99798.81;;;5.34;100.00
80892;BME280;70343;51.530;5.050;2024-02-26T03:44:08;99810.13;;;5.33;100.00
80892;BME280;70343;51.530;5.050;2024-02-26T03:46:34;99794.44;;;5.35;100.00
80892;BME280;70343;51.530;5.050;2024-02-26T03:48:59;99804.97;;;5.33;100.00
80892;BME280;70343;51.530;5.050;2024-02-26T03:51:25;99801.38;;;5.34;100.00
80892;BME280;70343;51.530;5.050;2024-02-26T03:53:51;99795.34;;;5.27;100.00
80892;BME280;70343;51.530;5.050;2024-02-26T03:56:17;99807.22;;;5.22;100.00
80892;BME280;70343;51.530;5.050;2024-02-26T03:58:42;99806.47;;;5.13;100.00
80892;BME280;70343;51.530;5.050;2024-02-26T04:01:08;99810.13;;;5.19;100.00
80892;BME280;70343;51.530;5.050;2024-02-26T04:03:34;99820.31;;;5.20;100.00
80892;BME280;70343;51.530;5.050;2024-02-26T04:06:00;99804.00;;;5.20;100.00
80892;BME280;70343;51.530;5.050;2024-02-26T04:08:26;99809.97;;;5.20;100.00
80892;BME280;70343;51.530;5.050;2024-02-26T04:10:51;99803.56;;;5.16;100.00
80892;BME280;70343;51.530;5.050;2024-02-26T04:13:17;99806.31;;;5.15;100.00
80892;BME280;70343;51.530;5.050;2024-02-26T04:15:43;99805.16;;;5.17;100.00
80892;BME280;70343;51.530;5.050;2024-02-26T04:18:08;99808.34;;;5.19;100.00
80892;BME280;70343;51.530;5.050;2024-02-26T04:20:34;99806.75;;;5.18;100.00
80892;BME280;70343;51.530;5.050;2024-02-26T04:22:59;99809.97;;;5.20;100.00
80892;BME280;70343;51.530;5.050;2024-02-26T04:25:25;99814.34;;;5.20;100.00
80892;BME280;70343;51.530;5.050;2024-02-26T04:27:50;99821.47;;;5.18;100.00
80892;BME280;70343;51.530;5.050;2024-02-26T04:30:16;99814.97;;;5.22;100.00
80892;BME280;70343;51.530;5.050;2024-02-26T04:32:42;99821.09;;;5.21;100.00
80892;BME280;70343;51.530;5.050;2024-02-26T04:35:08;99828.41;;;5.17;100.00
80892;BME280;70343;51.530;5.050;2024-02-26T04:37:33;99828.16;;;5.12;100.00
80892;BME280;70343;51.530;5.050;2024-02-26T04:40:00;99822.59;;;5.15;100.00
80892;BME280;70343;51.530;5.050;2024-02-26T04:42:26;99824.22;;;5.16;100.00
80892;BME280;70343;51.530;5.050;2024-02-26T04:44:52;99827.34;;;5.12;100.00
80892;BME280;70343;51.530;5.050;2024-02-26T04:47:17;99829.22;;;5.18;100.00
80892;BME280;70343;51.530;5.050;2024-02-26T04:49:43;99828.41;;;5.32;100.00
80892;BME280;70343;51.530;5.050;2024-02-26T04:52:08;99838.38;;;5.35;100.00
80892;BME280;70343;51.530;5.050;2024-02-26T04:54:34;99837.94;;;5.31;100.00
80892;BME280;70343;51.530;5.050;2024-02-26T04:56:59;99847.28;;;5.32;100.00
80892;BME280;70343;51.530;5.050;2024-02-26T04:59:25;99845.94;;;5.36;100.00
80892;BME280;70343;51.530;5.050;2024-02-26T05:01:50;99847.75;;;5.36;100.00
80892;BME280;70343;51.530;5.050;2024-02-26T05:04:18;99846.06;;;5.28;100.00
80892;BME280;70343;51.530;5.050;2024-02-26T05:06:43;99841.88;;;5.27;100.00
80892;BME280;70343;51.530;5.050;2024-02-26T05:09:09;99852.38;;;5.40;100.00
80892;BME280;70343;51.530;5.050;2024-02-26T05:11:34;99846.31;;;5.33;100.00
80892;BME280;70343;51.530;5.050;2024-02-26T05:14:00;99845.25;;;5.28;100.00
80892;BME280;70343;51.530;5.050;2024-02-26T05:16:26;99846.84;;;5.29;100.00
80892;BME280;70343;51.530;5.050;2024-02-26T05:18:53;99848.91;;;5.19;100.00
80892;BME280;70343;51.530;5.050;2024-02-26T05:21:18;99844.69;;;5.32;100.00
80892;BME280;70343;51.530;5.050;2024-02-26T05:23:44;99835.00;;;5.20;100.00
80892;BME280;70343;51.530;5.050;2024-02-26T05:26:10;99852.56;;;5.24;100.00
80892;BME280;70343;51.530;5.050;2024-02-26T05:28:36;99852.56;;;5.24;100.00
80892;BME280;70343;51.530;5.050;2024-02-26T05:31:04;99855.78;;;5.26;100.00
80892;BME280;70343;51.530;5.050;2024-02-26T05:33:30;99860.94;;;5.26;100.00
80892;BME280;70343;51.530;5.050;2024-02-26T05:35:56;99861.28;;;5.23;100.00
80892;BME280;70343;51.530;5.050;2024-02-26T05:38:21;99852.09;;;5.21;100.00
80892;BME280;70343;51.530;5.050;2024-02-26T05:40:46;99855.06;;;5.18;100.00
80892;BME280;70343;51.530;5.050;2024-02-26T05:43:12;99859.16;;;5.12;100.00
80892;BME280;70343;51.530;5.050;2024-02-26T05:45:40;99865.91;;;5.13;100.00
80892;BME280;70343;51.530;5.050;2024-02-26T05:48:06;99877.94;;;5.21;100.00
80892;BME280;70343;51.530;5.050;2024-02-26T05:50:32;99871.00;;;5.21;100.00
80892;BME280;70343;51.530;5.050;2024-02-26T05:52:57;99879.56;;;5.22;100.00
80892;BME280;70343;51.530;5.050;2024-02-26T05:55:23;99872.25;;;5.25;100.00
80892;BME280;70343;51.530;5.050;2024-02-26T05:57:48;99882.34;;;5.20;100.00
80892;BME280;70343;51.530;5.050;2024-02-26T06:00:15;99895.50;;;5.25;100.00
80892;BME280;70343;51.530;5.050;2024-02-26T06:02:40;99900.06;;;5.23;100.00
80892;BME280;70343;51.530;5.050;2024-02-26T06:05:06;99900.06;;;5.23;100.00
80892;BME280;70343;51.530;5.050;2024-02-26T06:07:34;99906.38;;;5.21;100.00
80892;BME280;70343;51.530;5.050;2024-02-26T06:10:00;99908.81;;;5.22;100.00
80892;BME280;70343;51.530;5.050;2024-02-26T06:12:26;99912.63;;;5.26;100.00
80892;BME280;70343;51.530;5.050;2024-02-26T06:14:54;99920.72;;;5.23;100.00
80892;BME280;70343;51.530;5.050;2024-02-26T06:17:19;99916.88;;;5.19;100.00
80892;BME280;70343;51.530;5.050;2024-02-26T06:19:44;99915.94;;;5.20;100.00
80892;BME280;70343;51.530;5.050;2024-02-26T06:22:10;99929.53;;;5.14;100.00
80892;BME280;70343;51.530;5.050;2024-02-26T06:24:35;99927.28;;;5.11;100.00
80892;BME280;70343;51.530;5.050;2024-02-26T06:27:01;99934.34;;;5.17;100.00
80892;BME280;70343;51.530;5.050;2024-02-26T06:29:26;99936.13;;;5.17;100.00
80892;BME280;70343;51.530;5.050;2024-02-26T06:31:52;99939.97;;;5.21;100.00
80892;BME280;70343;51.530;5.050;2024-02-26T06:34:17;99944.69;;;5.17;100.00
80892;BME280;70343;51.530;5.050;2024-02-26T06:36:43;99941.16;;;5.18;100.00
80892;BME280;70343;51.530;5.050;2024-02-26T06:39:08;99951.47;;;5.18;100.00
80892;BME280;70343;51.530;5.050;2024-02-26T06:41:36;99948.34;;;5.08;100.00
80892;BME280;70343;51.530;5.050;2024-02-26T06:44:01;99955.38;;;5.14;100.00
80892;BME280;70343;51.530;5.050;2024-02-26T06:46:27;99945.69;;;5.16;100.00
80892;BME280;70343;51.530;5.050;2024-02-26T06:48:55;99951.88;;;5.07;100.00
80892;BME280;70343;51.530;5.050;2024-02-26T06:51:21;99954.22;;;5.17;100.00
80892;BME280;70343;51.530;5.050;2024-02-26T06:53:47;99953.88;;;5.20;100.00
80892;BME280;70343;51.530;5.050;2024-02-26T06:56:13;99964.91;;;5.14;100.00
80892;BME280;70343;51.530;5.050;2024-02-26T06:58:38;99966.97;;;5.18;100.00
80892;BME280;70343;51.530;5.050;2024-02-26T07:01:04;99974.63;;;5.12;100.00
80892;BME280;70343;51.530;5.050;2024-02-26T07:03:29;99973.81;;;5.11;100.00
80892;BME280;70343;51.530;5.050;2024-02-26T07:05:55;99982.03;;;5.15;100.00
80892;BME280;70343;51.530;5.050;2024-02-26T07:08:22;99984.00;;;5.13;100.00
80892;BME280;70343;51.530;5.050;2024-02-26T07:10:47;99989.50;;;5.10;100.00
80892;BME280;70343;51.530;5.050;2024-02-26T07:13:13;99989.59;;;5.16;100.00
80892;BME280;70343;51.530;5.050;2024-02-26T07:15:38;99994.78;;;5.16;100.00
80892;BME280;70343;51.530;5.050;2024-02-26T07:18:04;99991.91;;;5.11;100.00
80892;BME280;70343;51.530;5.050;2024-02-26T07:20:30;100001.31;;;5.04;100.00
80892;BME280;70343;51.530;5.050;2024-02-26T07:22:56;99995.81;;;5.07;100.00
80892;BME280;70343;51.530;5.050;2024-02-26T07:25:22;100000.19;;;5.07;100.00
80892;BME280;70343;51.530;5.050;2024-02-26T07:27:47;100002.22;;;5.11;100.00
80892;BME280;70343;51.530;5.050;2024-02-26T07:30:13;100007.41;;;5.11;100.00
80892;BME280;70343;51.530;5.050;2024-02-26T07:32:39;100009.34;;;5.09;100.00
80892;BME280;70343;51.530;5.050;2024-02-26T07:35:04;100020.69;;;5.08;100.00
80892;BME280;70343;51.530;5.050;2024-02-26T07:37:30;100012.41;;;5.13;100.00
80892;BME280;70343;51.530;5.050;2024-02-26T07:39:56;100021.59;;;5.15;100.00
80892;BME280;70343;51.530;5.050;2024-02-26T07:42:21;100023.84;;;5.18;100.00
80892;BME280;70343;51.530;5.050;2024-02-26T07:44:47;100023.38;;;5.15;100.00
80892;BME280;70343;51.530;5.050;2024-02-26T07:47:12;100025.50;;;5.11;100.00
80892;BME280;70343;51.530;5.050;2024-02-26T07:49:39;100035.19;;;5.09;100.00
80892;BME280;70343;51.530;5.050;2024-02-26T07:52:04;100032.09;;;5.14;100.00
80892;BME280;70343;51.530;5.050;2024-02-26T07:54:30;100041.63;;;5.13;100.00
80892;BME280;70343;51.530;5.050;2024-02-26T07:56:55;100052.41;;;5.17;100.00
80892;BME280;70343;51.530;5.050;2024-02-26T07:59:21;100041.28;;;5.16;100.00
80892;BME280;70343;51.530;5.050;2024-02-26T08:01:52;100043.88;;;5.16;100.00
80892;BME280;70343;51.530;5.050;2024-02-26T08:04:18;100049.94;;;5.23;100.00
80892;BME280;70343;51.530;5.050;2024-02-26T08:06:44;100056.16;;;5.14;100.00
80892;BME280;70343;51.530;5.050;2024-02-26T08:09:09;100057.56;;;5.17;100.00
80892;BME280;70343;51.530;5.050;2024-02-26T08:11:35;100051.97;;;5.13;100.00
80892;BME280;70343;51.530;5.050;2024-02-26T08:14:00;100069.09;;;5.14;100.00
80892;BME280;70343;51.530;5.050;2024-02-26T08:16:26;100067.81;;;5.10;100.00
80892;BME280;70343;51.530;5.050;2024-02-26T08:18:51;100084.88;;;5.19;100.00
80892;BME280;70343;51.530;5.050;2024-02-26T08:21:17;100089.41;;;5.17;100.00
80892;BME280;70343;51.530;5.050;2024-02-26T08:23:43;100085.41;;;5.15;100.00
80892;BME280;70343;51.530;5.050;2024-02-26T08:26:09;100084.22;;;5.17;100.00
80892;BME280;70343;51.530;5.050;2024-02-26T08:28:39;100090.41;;;5.16;100.00
80892;BME280;70343;51.530;5.050;2024-02-26T08:31:05;100095.38;;;5.18;100.00
80892;BME280;70343;51.530;5.050;2024-02-26T08:33:30;100105.53;;;5.19;100.00
80892;BME280;70343;51.530;5.050;2024-02-26T08:35:56;100111.69;;;5.18;100.00
80892;BME280;70343;51.530;5.050;2024-02-26T08:38:22;100117.19;;;5.15;100.00
80892;BME280;70343;51.530;5.050;2024-02-26T08:40:48;100118.28;;;5.21;100.00
80892;BME280;70343;51.530;5.050;2024-02-26T08:43:14;100116.06;;;5.18;100.00
80892;BME280;70343;51.530;5.050;2024-02-26T08:45:39;100128.84;;;5.11;100.00
80892;BME280;70343;51.530;5.050;2024-02-26T08:48:05;100128.53;;;5.14;100.00
80892;BME280;70343;51.530;5.050;2024-02-26T08:50:31;100127.22;;;5.18;100.00
80892;BME280;70343;51.530;5.050;2024-02-26T08:52:56;100128.81;;;5.19;100.00
80892;BME280;70343;51.530;5.050;2024-02-26T08:55:22;100132.00;;;5.21;100.00
80892;BME280;70343;51.530;5.050;2024-02-26T08:57:47;100132.38;;;5.18;100.00
80892;BME280;70343;51.530;5.050;2024-02-26T09:00:14;100129.94;;;5.17;100.00
80892;BME280;70343;51.530;5.050;2024-02-26T09:02:41;100142.50;;;5.28;100.00
80892;BME280;70343;51.530;5.050;2024-02-26T09:05:09;100129.88;;;5.25;100.00
80892;BME280;70343;51.530;5.050;2024-02-26T09:07:35;100138.31;;;5.19;100.00
80892;BME280;70343;51.530;5.050;2024-02-26T09:10:02;100150.59;;;5.17;100.00
80892;BME280;70343;51.530;5.050;2024-02-26T09:12:27;100152.06;;;5.19;100.00
80892;BME280;70343;51.530;5.050;2024-02-26T09:14:54;100161.94;;;5.16;100.00
80892;BME280;70343;51.530;5.050;2024-02-26T09:17:21;100155.31;;;5.13;100.00
80892;BME280;70343;51.530;5.050;2024-02-26T09:19:46;100159.53;;;5.14;100.00
80892;BME280;70343;51.530;5.050;2024-02-26T09:22:12;100160.63;;;5.20;100.00
80892;BME280;70343;51.530;5.050;2024-02-26T09:24:38;100158.22;;;5.18;100.00
80892;BME280;70343;51.530;5.050;2024-02-26T09:27:03;100173.03;;;5.24;100.00
80892;BME280;70343;51.530;5.050;2024-02-26T09:29:29;100179.47;;;5.28;100.00
80892;BME280;70343;51.530;5.050;2024-02-26T09:31:54;100186.66;;;5.18;100.00
80892;BME280;70343;51.530;5.050;2024-02-26T09:34:20;100186.94;;;5.23;100.00
80892;BME280;70343;51.530;5.050;2024-02-26T09:36:45;100185.66;;;5.19;100.00
80892;BME280;70343;51.530;5.050;2024-02-26T09:39:11;100185.97;;;5.24;100.00
80892;BME280;70343;51.530;5.050;2024-02-26T09:41:37;100190.78;;;5.27;100.00
80892;BME280;70343;51.530;5.050;2024-02-26T09:44:04;100193.66;;;5.32;100.00
80892;BME280;70343;51.530;5.050;2024-02-26T09:46:30;100202.22;;;5.33;100.00
80892;BME280;70343;51.530;5.050;2024-02-26T09:48:56;100201.38;;;5.40;100.00
80892;BME280;70343;51.530;5.050;2024-02-26T09:51:24;100205.63;;;5.33;100.00
80892;BME280;70343;51.530;5.050;2024-02-26T09:53:53;100204.69;;;5.26;100.00
80892;BME280;70343;51.530;5.050;2024-02-26T09:56:21;100205.63;;;5.33;100.00
80892;BME280;70343;51.530;5.050;2024-02-26T09:58:47;100209.78;;;5.34;100.00
80892;BME280;70343;51.530;5.050;2024-02-26T10:01:18;100209.78;;;5.34;100.00
80892;BME280;70343;51.530;5.050;2024-02-26T10:03:44;100235.00;;;5.32;100.00
80892;BME280;70343;51.530;5.050;2024-02-26T10:06:11;100227.25;;;5.32;100.00
80892;BME280;70343;51.530;5.050;2024-02-26T10:08:37;100239.22;;;5.33;100.00
80892;BME280;70343;51.530;5.050;2024-02-26T10:11:07;100247.25;;;5.38;100.00
80892;BME280;70343;51.530;5.050;2024-02-26T10:13:34;100246.81;;;5.35;100.00
80892;BME280;70343;51.530;5.050;2024-02-26T10:16:01;100247.25;;;5.38;100.00
80892;BME280;70343;51.530;5.050;2024-02-26T10:18:53;100251.47;;;5.39;100.00
80892;BME280;70343;51.530;5.050;2024-02-26T10:21:22;100252.44;;;5.38;100.00
80892;BME280;70343;51.530;5.050;2024-02-26T10:23:48;100266.34;;;5.37;100.00
80892;BME280;70343;51.530;5.050;2024-02-26T10:26:14;100260.34;;;5.37;100.00
80892;BME280;70343;51.530;5.050;2024-02-26T10:28:44;100267.16;;;5.38;100.00
80892;BME280;70343;51.530;5.050;2024-02-26T10:31:10;100269.56;;;5.39;100.00
80892;BME280;70343;51.530;5.050;2024-02-26T10:33:37;100276.81;;;5.44;100.00
80892;BME280;70343;51.530;5.050;2024-02-26T16:55:50;100821.81;;;5.74;100.00
80892;BME280;70343;51.530;5.050;2024-02-26T16:58:16;100811.16;;;5.69;100.00
80892;BME280;70343;51.530;5.050;2024-02-26T17:00:41;100819.06;;;5.68;100.00
80892;BME280;70343;51.530;5.050;2024-02-26T17:03:07;100831.34;;;5.66;100.00
80892;BME280;70343;51.530;5.050;2024-02-26T17:05:32;100832.31;;;5.65;100.00
80892;BME280;70343;51.530;5.050;2024-02-26T17:07:58;100836.19;;;5.61;100.00
80892;BME280;70343;51.530;5.050;2024-02-26T17:10:24;100840.41;;;5.62;100.00
80892;BME280;70343;51.530;5.050;2024-02-26T17:12:49;100846.53;;;5.61;100.00
80892;BME280;70343;51.530;5.050;2024-02-26T17:15:15;100839.75;;;5.60;100.00
80892;BME280;70343;51.530;5.050;2024-02-26T17:17:40;100848.47;;;5.59;100.00
80892;BME280;70343;51.530;5.050;2024-02-26T17:20:06;100849.09;;;5.61;100.00
80892;BME280;70343;51.530;5.050;2024-02-26T17:22:33;100856.06;;;5.60;100.00
80892;BME280;70343;51.530;5.050;2024-02-26T17:24:58;100861.72;;;5.56;100.00
80892;BME280;70343;51.530;5.050;2024-02-26T17:27:24;100875.31;;;5.58;100.00
80892;BME280;70343;51.530;5.050;2024-02-26T17:29:49;100882.41;;;5.56;100.00
80892;BME280;70343;51.530;5.050;2024-02-26T17:32:15;100886.91;;;5.54;100.00
80892;BME280;70343;51.530;5.050;2024-02-26T17:34:40;100900.63;;;5.54;100.00
80892;BME280;70343;51.530;5.050;2024-02-26T17:37:07;100905.03;;;5.54;100.00
80892;BME280;70343;51.530;5.050;2024-02-26T17:39:32;100909.53;;;5.52;100.00
80892;BME280;70343;51.530;5.050;2024-02-26T17:41:58;100919.88;;;5.52;100.00
80892;BME280;70343;51.530;5.050;2024-02-26T17:44:23;100922.31;;;5.53;100.00
80892;BME280;70343;51.530;5.050;2024-02-26T17:46:51;100915.00;;;5.49;100.00
80892;BME280;70343;51.530;5.050;2024-02-26T17:49:18;100929.41;;;5.51;100.00
80892;BME280;70343;51.530;5.050;2024-02-26T17:51:44;100934.41;;;5.53;100.00
80892;BME280;70343;51.530;5.050;2024-02-26T17:54:09;100937.66;;;5.55;100.00
80892;BME280;70343;51.530;5.050;2024-02-26T17:56:35;100936.72;;;5.56;100.00
80892;BME280;70343;51.530;5.050;2024-02-26T17:59:00;100940.56;;;5.52;100.00
80892;BME280;70343;51.530;5.050;2024-02-26T18:01:26;100942.78;;;5.47;100.00
80892;BME280;70343;51.530;5.050;2024-02-26T18:03:52;100962.22;;;5.51;100.00
80892;BME280;70343;51.530;5.050;2024-02-26T18:06:18;100962.88;;;5.53;100.00
80892;BME280;70343;51.530;5.050;2024-02-26T18:08:45;100973.16;;;5.44;100.00
80892;BME280;70343;51.530;5.050;2024-02-26T18:11:10;100986.47;;;5.50;100.00
80892;BME280;70343;51.530;5.050;2024-02-26T18:13:37;100990.97;;;5.48;100.00
80892;BME280;70343;51.530;5.050;2024-02-26T18:16:06;101005.16;;;5.43;100.00
80892;BME280;70343;51.530;5.050;2024-02-26T18:18:32;101002.75;;;5.42;100.00
80892;BME280;70343;51.530;5.050;2024-02-26T18:20:57;101006.78;;;5.44;100.00
80892;BME280;70343;51.530;5.050;2024-02-26T18:23:23;101020.69;;;5.43;100.00
80892;BME280;70343;51.530;5.050;2024-02-26T18:25:48;101012.25;;;5.41;100.00
80892;BME280;70343;51.530;5.050;2024-02-26T18:28:16;101023.72;;;5.39;100.00
80892;BME280;70343;51.530;5.050;2024-02-26T18:30:43;101031.31;;;5.40;100.00
80892;BME280;70343;51.530;5.050;2024-02-26T18:33:11;101027.13;;;5.39;100.00
80892;BME280;70343;51.530;5.050;2024-02-26T18:35:36;101029.63;;;5.31;100.00
80892;BME280;70343;51.530;5.050;2024-02-26T18:38:02;101036.41;;;5.32;100.00
80892;BME280;70343;51.530;5.050;2024-02-26T18:40:28;101041.75;;;5.31;100.00
80892;BME280;70343;51.530;5.050;2024-02-26T18:42:54;101054.59;;;5.23;100.00
80892;BME280;70343;51.530;5.050;2024-02-26T18:45:20;101056.09;;;5.25;100.00
80892;BME280;70343;51.530;5.050;2024-02-26T18:47:46;101058.09;;;5.31;100.00
80892;BME280;70343;51.530;5.050;2024-02-26T18:50:15;101057.56;;;5.28;100.00
80892;BME280;70343;51.530;5.050;2024-02-26T18:52:40;101073.53;;;5.23;100.00
80892;BME280;70343;51.530;5.050;2024-02-26T18:55:07;101071.53;;;5.17;100.00
80892;BME280;70343;51.530;5.050;2024-02-26T18:57:33;101086.44;;;5.23;100.00
80892;BME280;70343;51.530;5.050;2024-02-26T18:59:58;101077.75;;;5.24;100.00
80892;BME280;70343;51.530;5.050;2024-02-26T19:02:24;101090.34;;;5.27;100.00
80892;BME280;70343;51.530;5.050;2024-02-26T19:04:51;101090.78;;;5.23;100.00
80892;BME280;70343;51.530;5.050;2024-02-26T19:07:16;101099.69;;;5.20;100.00
80892;BME280;70343;51.530;5.050;2024-02-26T19:09:42;101082.84;;;5.16;100.00